Skip Navigation Links
NOAA logo - Click to go to the NOAA homepage
NOAA's National Weather Service
Alaska Aviation Weather Unit
  NWS logo - Click to go to the NWS homepage
Left Navbar Graphic     23 AKDT = 07 GMT

   
NOAA is celebrating 200 years of science, service, and stewardship. Visit the NOAA 200th celebration Web site to learn more.
USA.gov is the U.S. Government's official Web portal to all Federal, state and local government Web resources and services.
Facebook
NWS on Facebook

AAWU Home :: Display TAF Add Bookmark
TAF PAED 240305Z 2403/2509 VRB06KT 9999 SCT050 BKN080 OVC100
      610807
      QNH2960INS
      BECMG 2418/2419 VRB06KT 9999 VCSH SCT030 BKN040 OVC080
      610409
      QNH2955INS TX13/2403Z TN06/2415Z=
METAR PAED 240158Z AUTO 00000KT 10SM FEW080 BKN110 13/01 A2965=

METAR PAED 240258Z AUTO 25005KT 10SM OVC120 13/01 A2964=

METAR PAED 240358Z AUTO 29005KT 10SM SCT070 BKN100 OVC110 12/01
     A2964=

METAR PAED 240458Z AUTO 33004KT 10SM FEW065 BKN090 BKN110 11/01
     A2964=

METAR PAED 240558Z AUTO 00000KT 10SM BKN060 OVC090 09/01 A2964=

METAR PAED 240658Z AUTO 00000KT 10SM SCT060 OVC075 09/01 A2965=


NOAA's National Weather Service
Alaska Aviation Weather Unit
6930 Sand Lake Road
Anchorage, AK 99502-1845
Disclaimer
Credits
Glossary
Privacy Policy
About Us
Career Opportunities
Contact AAWU Internet Services Site last modified: April, 17th 2012